createdAt,value
2023-03-23T00:08:15.996Z,10.3
2023-03-23T00:18:17.112Z,10.3
2023-03-23T00:28:18.200Z,10.4
2023-03-23T00:38:19.405Z,10.4
2023-03-23T00:48:20.650Z,10.5
2023-03-23T00:58:22.508Z,10.6
2023-03-23T01:08:24.522Z,10.7
2023-03-23T01:18:32.686Z,11
2023-03-23T01:28:28.247Z,11.1
2023-03-23T01:48:31.218Z,11.3
2023-03-23T01:58:32.759Z,11.4
2023-03-23T02:08:34.660Z,11.5
2023-03-23T02:18:35.855Z,11.7
2023-03-23T02:28:37.221Z,11.7
2023-03-23T02:38:39.163Z,11.6
2023-03-23T02:48:40.364Z,11.6
2023-03-23T03:08:43.378Z,11.3
2023-03-23T03:18:45.170Z,11.3
2023-03-23T03:28:46.696Z,11.3
2023-03-23T03:38:48.318Z,11.4
2023-03-23T03:48:50.056Z,11.6
2023-03-23T03:58:51.735Z,11.6
2023-03-23T04:08:53.022Z,11.5
2023-03-23T04:18:54.291Z,11.6
2023-03-23T04:28:56.010Z,11.6
2023-03-23T04:38:57.673Z,11.6
2023-03-23T04:48:59.601Z,11.7
2023-03-23T04:59:01.622Z,11.8
2023-03-23T05:09:03.648Z,11.8
2023-03-23T05:19:05.679Z,11.8
2023-03-23T05:29:07.521Z,11.9
2023-03-23T05:39:08.962Z,12
2023-03-23T05:59:11.669Z,12
2023-03-23T06:09:13.107Z,11.9
2023-03-23T06:19:14.631Z,12
2023-03-23T06:29:16.683Z,11.9
2023-03-23T06:39:18.140Z,11.8
2023-03-23T06:49:20.520Z,11.9
2023-03-23T06:59:21.136Z,12
2023-03-23T07:09:27.569Z,12.2
2023-03-23T07:19:24.741Z,12.2
2023-03-23T07:29:26.034Z,12.3
2023-03-23T07:39:27.861Z,12.4
2023-03-23T07:49:29.908Z,12.4
2023-03-23T07:59:31.217Z,12.4
2023-03-23T08:09:32.332Z,12.5
2023-03-23T08:29:35.286Z,12.7
2023-03-23T08:39:36.607Z,12.8
2023-03-23T08:59:40.303Z,13
2023-03-23T09:09:41.873Z,12.9
2023-03-23T09:19:42.967Z,12.9
2023-03-23T09:29:44.243Z,12.8
2023-03-23T09:39:46.165Z,13
2023-03-23T10:09:50.781Z,9.4
2023-03-23T10:29:53.332Z,9.7
2023-03-23T10:59:58.927Z,9.7
2023-03-23T11:10:00.181Z,9.8
2023-03-23T11:20:01.266Z,9.9
2023-03-23T12:10:09.060Z,9.4
2023-03-23T13:00:17.157Z,9.9
2023-03-23T13:10:19.050Z,10.5
2023-03-23T13:20:20.959Z,10.8
2023-03-23T13:30:22.558Z,11
2023-03-23T14:10:28.864Z,11.9
2023-03-23T14:20:30.034Z,12.1
2023-03-23T14:50:34.745Z,12.7
2023-03-23T15:10:37.489Z,13.1
2023-03-23T15:20:39.347Z,13.2
2023-03-23T15:40:41.938Z,13.9
2023-03-23T15:50:42.992Z,14
2023-03-23T16:00:44.565Z,14.2
2023-03-23T16:10:45.931Z,13.3
2023-03-23T16:20:47.471Z,13.4
2023-03-23T16:30:49.396Z,13.5
2023-03-23T16:40:51.417Z,13.2
2023-03-23T16:50:53.200Z,13.2
2023-03-23T17:53:39.620Z,12.6
2023-03-23T19:11:20.999Z,12.1
2023-03-23T19:21:25.395Z,12
2023-03-23T20:21:33.014Z,11.9
2023-03-23T22:11:49.973Z,12.1
2023-03-23T22:51:56.313Z,11.6
2023-03-23T23:22:09.393Z,11.2
